createdAt,value
2022-11-14T00:01:27.748Z,16.10
2022-11-14T00:04:17.084Z,15.80
2022-11-14T00:07:06.599Z,15.80
2022-11-14T00:09:56.204Z,14.40
2022-11-14T00:12:45.496Z,14.80
2022-11-14T00:15:34.918Z,13.20
2022-11-14T00:18:25.185Z,14.30
2022-11-14T00:21:14.396Z,14.80
2022-11-14T00:24:04.051Z,16.70
2022-11-14T00:26:53.403Z,13.10
2022-11-14T00:29:43.151Z,11.50
2022-11-14T00:32:33.554Z,12.80
2022-11-14T00:35:22.919Z,12.90
2022-11-14T00:38:12.143Z,15.20
2022-11-14T00:41:01.426Z,14.50
2022-11-14T00:43:51.145Z,12.10
2022-11-14T00:46:40.548Z,13.70
2022-11-14T00:49:30.041Z,13.60
2022-11-14T00:52:19.691Z,15.10
2022-11-14T00:55:11.252Z,15.70
2022-11-14T00:58:00.791Z,13.80
2022-11-14T01:00:50.264Z,15.50
2022-11-14T01:03:39.789Z,12.60
2022-11-14T01:06:29.503Z,18.70
2022-11-14T01:09:18.963Z,14.40
2022-11-14T01:12:08.885Z,13.70
2022-11-14T01:14:58.143Z,11.70
2022-11-14T01:17:47.665Z,14.10
2022-11-14T01:20:39.498Z,15.20
2022-11-14T01:23:28.679Z,11.60
2022-11-14T01:26:18.101Z,11.70
2022-11-14T01:29:07.255Z,16.30
2022-11-14T01:31:56.627Z,13.50
2022-11-14T01:34:47.472Z,14.90
2022-11-14T01:37:37.191Z,11.60
2022-11-14T01:40:26.580Z,11.90
2022-11-14T01:43:33.498Z,16.50
2022-11-14T01:46:27.636Z,10.60
2022-11-14T01:49:21.700Z,11.50
2022-11-14T01:52:15.979Z,11.50
2022-11-14T01:55:09.706Z,12.40
2022-11-14T01:58:00.657Z,10.60
2022-11-14T02:00:50.162Z,12.90
2022-11-14T02:03:43.915Z,14.30
2022-11-14T02:06:34.456Z,13.40
2022-11-14T02:09:24.130Z,8.40
2022-11-14T02:12:16.404Z,11.50
2022-11-14T02:15:07.171Z,14.80
2022-11-14T02:20:45.191Z,12.90
2022-11-14T02:23:35.228Z,11.80
2022-11-14T02:26:24.999Z,11.10
2022-11-14T02:29:14.337Z,15.10
2022-11-14T02:32:09.480Z,14.90
2022-11-14T02:35:00.013Z,11.20
2022-11-14T02:37:49.436Z,14.10
2022-11-14T02:40:39.288Z,12.80
2022-11-14T02:43:28.948Z,11.00
2022-11-14T02:46:18.373Z,12.30
2022-11-14T02:49:07.681Z,12.50
2022-11-14T02:51:57.928Z,6.80
2022-11-14T02:54:53.180Z,12.30
2022-11-14T02:57:43.994Z,10.50
2022-11-14T03:00:33.547Z,14.60
2022-11-14T03:03:22.796Z,11.80
2022-11-14T03:06:12.101Z,10.00
2022-11-14T03:09:01.745Z,9.10
2022-11-14T03:11:51.070Z,11.90
2022-11-14T03:14:40.577Z,12.80
2022-11-14T03:17:34.240Z,11.60
2022-11-14T03:20:23.895Z,11.70
2022-11-14T03:23:13.543Z,11.40
2022-11-14T03:26:04.743Z,6.40
2022-11-14T03:28:55.398Z,12.50
2022-11-14T03:31:44.644Z,13.20
2022-11-14T03:34:34.294Z,12.10
2022-11-14T03:37:23.700Z,14.50
2022-11-14T03:40:14.585Z,11.80
2022-11-14T03:43:03.956Z,12.30
2022-11-14T03:45:53.490Z,11.60
2022-11-14T03:48:43.082Z,11.40
2022-11-14T03:51:32.580Z,11.20
2022-11-14T03:54:22.062Z,15.40
2022-11-14T03:57:11.307Z,12.00
2022-11-14T04:00:00.585Z,14.20
2022-11-14T04:02:50.662Z,11.60
2022-11-14T04:05:40.460Z,12.70
2022-11-14T04:08:30.500Z,13.40
2022-11-14T04:11:20.350Z,13.00
2022-11-14T04:14:10.402Z,11.60
2022-11-14T04:16:59.888Z,12.90
2022-11-14T04:19:49.461Z,10.10
2022-11-14T04:22:39.172Z,10.70
2022-11-14T04:25:28.686Z,11.60
2022-11-14T04:28:18.234Z,12.10
2022-11-14T04:31:07.971Z,11.00
2022-11-14T04:33:57.444Z,11.70
2022-11-14T04:36:47.044Z,10.70
2022-11-14T04:39:36.698Z,15.10
2022-11-14T04:42:26.208Z,13.30
2022-11-14T04:45:16.114Z,12.20
2022-11-14T04:48:05.946Z,13.10
2022-11-14T04:50:55.420Z,9.80
2022-11-14T04:53:45.011Z,9.50
2022-11-14T04:56:34.508Z,11.10
2022-11-14T04:59:23.931Z,10.00
2022-11-14T05:02:13.225Z,10.70
2022-11-14T05:05:02.660Z,12.50
2022-11-14T05:07:51.920Z,15.40
2022-11-14T05:10:45.768Z,16.50
2022-11-14T05:13:34.882Z,12.90
2022-11-14T05:16:25.190Z,10.30
2022-11-14T05:19:14.749Z,12.40
2022-11-14T05:22:04.084Z,12.50
2022-11-14T05:24:53.274Z,11.00
2022-11-14T05:27:42.647Z,13.00
2022-11-14T05:30:32.115Z,12.70
2022-11-14T05:33:21.231Z,12.30
2022-11-14T05:36:13.546Z,12.20
2022-11-14T05:39:02.836Z,11.50
2022-11-14T05:41:52.419Z,10.30
2022-11-14T05:44:41.750Z,15.30
2022-11-14T05:47:31.275Z,8.40
2022-11-14T05:50:20.791Z,11.60
2022-11-14T05:53:09.886Z,12.40
2022-11-14T05:56:03.232Z,13.50
2022-11-14T05:58:52.506Z,14.50
2022-11-14T06:01:42.001Z,15.30
2022-11-14T06:04:31.896Z,9.40
2022-11-14T06:07:21.277Z,12.70
2022-11-14T06:10:11.619Z,13.20
2022-11-14T06:13:01.028Z,11.40
2022-11-14T06:15:50.760Z,13.00
2022-11-14T06:18:40.321Z,10.40
2022-11-14T06:21:29.806Z,15.40
2022-11-14T06:24:19.585Z,14.30
2022-11-14T06:27:09.221Z,12.60
2022-11-14T06:29:58.631Z,14.10
2022-11-14T06:32:48.061Z,17.50
2022-11-14T06:35:37.404Z,16.50
2022-11-14T06:38:27.218Z,16.40
2022-11-14T06:41:19.122Z,14.50
2022-11-14T06:44:10.805Z,11.90
2022-11-14T06:47:00.493Z,16.70
2022-11-14T06:49:49.874Z,15.90
2022-11-14T06:52:39.567Z,14.30
2022-11-14T06:55:28.983Z,13.80
2022-11-14T06:58:18.700Z,13.40
2022-11-14T07:01:11.831Z,14.90
2022-11-14T07:04:02.390Z,13.70
2022-11-14T07:06:51.920Z,14.20
2022-11-14T07:09:41.382Z,16.10
2022-11-14T07:12:32.773Z,15.80
2022-11-14T07:15:22.440Z,14.10
2022-11-14T07:18:11.825Z,16.70
2022-11-14T07:21:03.600Z,11.70
2022-11-14T07:23:53.179Z,14.30
2022-11-14T07:26:42.634Z,14.70
2022-11-14T07:29:31.743Z,19.20
2022-11-14T07:32:20.919Z,15.40
2022-11-14T07:35:11.188Z,21.30
2022-11-14T07:38:05.473Z,18.40
2022-11-14T07:41:00.228Z,15.10
2022-11-14T07:43:49.722Z,18.60
2022-11-14T07:46:39.079Z,13.70
2022-11-14T07:49:28.563Z,12.60
2022-11-14T07:52:17.977Z,17.80
2022-11-14T07:55:08.590Z,18.40
2022-11-14T07:58:00.161Z,15.60
2022-11-14T08:00:50.020Z,15.70
2022-11-14T08:03:45.139Z,15.60
2022-11-14T08:06:35.317Z,16.10
2022-11-14T08:09:25.002Z,16.40
2022-11-14T08:12:14.563Z,17.40
2022-11-14T08:15:03.840Z,15.00
2022-11-14T08:17:53.410Z,12.70
2022-11-14T08:20:44.075Z,17.90
2022-11-14T08:23:33.403Z,15.90
2022-11-14T08:26:23.212Z,12.60
2022-11-14T08:29:12.389Z,15.20
2022-11-14T08:32:01.782Z,11.80
2022-11-14T08:34:51.214Z,16.20
2022-11-14T08:37:40.542Z,16.30
2022-11-14T08:40:29.725Z,15.60
2022-11-14T08:43:19.028Z,13.00
2022-11-14T08:46:08.619Z,13.30
2022-11-14T08:48:58.093Z,14.60
2022-11-14T08:51:47.507Z,12.00
2022-11-14T08:54:36.927Z,12.20
2022-11-14T08:57:26.166Z,16.70
2022-11-14T09:00:18.414Z,12.60
2022-11-14T09:03:13.413Z,11.40
2022-11-14T09:06:03.302Z,14.70
2022-11-14T09:08:52.721Z,12.10
2022-11-14T09:11:42.401Z,12.30
2022-11-14T09:14:31.812Z,13.90
2022-11-14T09:17:21.282Z,13.60
2022-11-14T09:20:11.831Z,15.70
2022-11-14T09:23:02.766Z,15.40
2022-11-14T09:25:52.179Z,14.20
2022-11-14T09:28:41.733Z,14.00
2022-11-14T09:31:31.301Z,11.40
2022-11-14T09:34:21.159Z,16.30
2022-11-14T09:37:10.363Z,12.40
2022-11-14T09:40:00.191Z,13.60
2022-11-14T09:43:11.153Z,14.30
2022-11-14T09:46:00.576Z,11.50
2022-11-14T09:48:50.794Z,12.70
2022-11-14T09:51:50.198Z,12.90
2022-11-14T09:54:47.784Z,14.10
2022-11-14T09:57:37.479Z,13.10
2022-11-14T10:00:29.703Z,12.60
2022-11-14T10:03:25.953Z,11.80
2022-11-14T10:06:27.579Z,14.60
2022-11-14T10:09:33.931Z,11.40
2022-11-14T10:12:31.752Z,15.70
2022-11-14T10:15:33.548Z,11.10
2022-11-14T10:18:37.823Z,11.20
2022-11-14T10:21:48.720Z,13.90
2022-11-14T10:24:56.021Z,11.30
2022-11-14T10:27:58.604Z,10.70
2022-11-14T10:31:02.434Z,10.80
2022-11-14T10:33:58.863Z,13.00
2022-11-14T10:37:04.483Z,9.50
2022-11-14T10:39:56.382Z,14.50
2022-11-14T10:42:48.718Z,11.10
2022-11-14T10:45:44.034Z,10.80
2022-11-14T10:48:36.618Z,13.20
2022-11-14T10:51:33.337Z,14.60
2022-11-14T10:54:29.370Z,16.80
2022-11-14T10:57:21.125Z,14.50
2022-11-14T11:00:16.137Z,13.50
2022-11-14T11:03:05.587Z,10.40
2022-11-14T11:05:57.807Z,13.10
2022-11-14T11:09:04.737Z,9.20
2022-11-14T11:12:01.617Z,15.10
2022-11-14T11:15:09.421Z,14.40
2022-11-14T11:18:00.387Z,12.60
2022-11-14T11:21:05.484Z,14.60
2022-11-14T11:23:57.590Z,12.10
2022-11-14T11:26:47.341Z,13.70
2022-11-14T11:29:36.855Z,11.90
2022-11-14T11:32:29.280Z,15.10
2022-11-14T11:35:20.153Z,14.80
2022-11-14T11:38:15.671Z,11.20
2022-11-14T11:41:33.374Z,12.90
2022-11-14T11:44:36.668Z,10.60
2022-11-14T11:47:26.750Z,13.70
2022-11-14T11:50:21.482Z,14.40
2022-11-14T11:53:20.536Z,13.80
2022-11-14T11:56:13.822Z,10.70
2022-11-14T11:59:17.755Z,9.20
2022-11-14T12:02:23.339Z,11.00
2022-11-14T12:05:17.926Z,11.40
2022-11-14T12:08:18.551Z,11.90
2022-11-14T12:11:17.963Z,11.30
2022-11-14T12:14:53.850Z,14.50
2022-11-14T12:18:04.639Z,13.40
2022-11-14T12:21:11.216Z,12.10
2022-11-14T12:24:35.640Z,11.80
2022-11-14T12:27:43.837Z,12.00
2022-11-14T12:30:36.507Z,13.30
2022-11-14T12:33:29.531Z,11.80
2022-11-14T12:36:19.191Z,16.30
2022-11-14T12:39:22.119Z,12.60
2022-11-14T12:42:20.765Z,14.00
2022-11-14T12:46:00.021Z,15.90
2022-11-14T12:48:50.181Z,13.80
2022-11-14T12:51:53.237Z,12.40
2022-11-14T12:54:49.619Z,12.20
2022-11-14T12:57:48.782Z,16.90
2022-11-14T13:00:42.257Z,10.90
2022-11-14T13:03:47.820Z,10.10
2022-11-14T13:06:48.088Z,13.40
2022-11-14T13:09:42.887Z,11.50
2022-11-14T13:13:07.313Z,11.20
2022-11-14T13:16:16.123Z,17.50
2022-11-14T13:22:39.255Z,11.50
2022-11-14T13:25:28.923Z,15.10
2022-11-14T13:28:49.957Z,14.10
2022-11-14T13:31:51.849Z,11.50
2022-11-14T13:34:50.907Z,14.90
2022-11-14T13:37:58.803Z,15.50
2022-11-14T13:40:57.196Z,14.60
2022-11-14T13:43:58.885Z,12.50
2022-11-14T13:47:06.837Z,13.60
2022-11-14T13:50:04.221Z,15.70
2022-11-14T13:52:54.319Z,14.70
2022-11-14T13:55:56.419Z,15.00
2022-11-14T13:59:22.959Z,12.20
2022-11-14T14:03:03.261Z,14.80
2022-11-14T14:06:07.648Z,15.00
2022-11-14T14:09:12.917Z,14.70
2022-11-14T14:12:14.601Z,13.50
2022-11-14T14:15:15.471Z,16.40
2022-11-14T14:18:14.875Z,15.60
2022-11-14T14:21:15.479Z,15.00
2022-11-14T14:24:14.646Z,10.10
2022-11-14T14:27:15.395Z,14.20
2022-11-14T14:30:11.830Z,13.20
2022-11-14T14:33:14.264Z,19.90
2022-11-14T14:36:04.223Z,12.40
2022-11-14T14:39:10.572Z,16.10
2022-11-14T14:42:01.093Z,17.60
2022-11-14T14:44:50.929Z,14.70
2022-11-14T14:47:42.865Z,18.20
2022-11-14T14:50:40.606Z,13.00
2022-11-14T14:53:31.105Z,11.10
2022-11-14T14:59:25.705Z,13.90
2022-11-14T15:02:19.101Z,14.10
2022-11-14T15:05:10.102Z,21.40
2022-11-14T15:10:49.465Z,15.50
2022-11-14T15:13:40.047Z,16.60
2022-11-14T15:16:30.802Z,18.90
2022-11-14T15:19:23.833Z,15.70
2022-11-14T15:22:29.042Z,20.60
2022-11-14T15:25:22.423Z,10.90
2022-11-14T15:28:20.873Z,18.50
2022-11-14T15:31:20.391Z,18.20
2022-11-14T15:34:26.471Z,20.50
2022-11-14T15:37:24.511Z,16.50
2022-11-14T15:40:22.287Z,18.50
2022-11-14T15:43:38.954Z,19.40
2022-11-14T15:46:47.442Z,8.90
2022-11-14T15:49:37.351Z,18.70
2022-11-14T15:52:30.070Z,18.40
2022-11-14T15:55:21.755Z,22.10
2022-11-14T15:58:27.802Z,18.30
2022-11-14T16:01:26.896Z,20.20
2022-11-14T16:04:19.168Z,20.00
2022-11-14T16:07:11.973Z,30.20
2022-11-14T16:10:01.697Z,21.20
2022-11-14T16:12:52.798Z,22.40
2022-11-14T16:15:42.246Z,18.70
2022-11-14T16:18:31.651Z,24.60
2022-11-14T16:21:21.165Z,21.60
2022-11-14T16:24:17.610Z,22.80
2022-11-14T16:27:07.678Z,22.20
2022-11-14T16:29:57.776Z,24.30
2022-11-14T16:32:49.013Z,23.20
2022-11-14T16:35:38.616Z,21.60
2022-11-14T16:38:28.060Z,19.20
2022-11-14T16:41:19.448Z,21.20
2022-11-14T16:44:13.563Z,25.50
2022-11-14T16:47:03.138Z,25.10
2022-11-14T16:49:52.299Z,25.20
2022-11-14T16:52:42.245Z,23.30
2022-11-14T16:55:31.792Z,20.00
2022-11-14T16:58:21.315Z,23.60
2022-11-14T17:01:21.047Z,24.20
2022-11-14T17:04:10.943Z,22.20
2022-11-14T17:07:00.482Z,23.20
2022-11-14T17:09:49.762Z,24.50
2022-11-14T17:12:39.339Z,24.90
2022-11-14T17:15:28.823Z,27.50
2022-11-14T17:18:18.290Z,23.90
2022-11-14T17:21:13.189Z,27.20
2022-11-14T17:24:03.756Z,26.00
2022-11-14T17:26:53.274Z,21.40
2022-11-14T17:29:42.707Z,27.30
2022-11-14T17:32:33.624Z,25.50
2022-11-14T17:35:23.174Z,25.00
2022-11-14T17:38:12.426Z,25.40
2022-11-14T17:41:05.805Z,27.70
2022-11-14T17:43:58.878Z,25.60
2022-11-14T17:46:49.096Z,27.10
2022-11-14T17:49:38.634Z,25.20
2022-11-14T17:52:28.286Z,33.40
2022-11-14T17:55:18.134Z,27.20
2022-11-14T17:58:07.855Z,31.60
2022-11-14T18:00:58.813Z,36.90
2022-11-14T18:03:48.498Z,24.00
2022-11-14T18:06:37.941Z,27.20
2022-11-14T18:09:29.396Z,21.20
2022-11-14T18:12:18.968Z,25.70
2022-11-14T18:15:10.030Z,24.00
2022-11-14T18:20:47.737Z,34.20
2022-11-14T18:23:38.775Z,21.50
2022-11-14T18:26:30.392Z,26.50
2022-11-14T18:29:19.523Z,29.20
2022-11-14T18:32:09.151Z,30.50
2022-11-14T18:34:58.816Z,30.60
2022-11-14T18:37:48.399Z,29.80
2022-11-14T18:40:38.058Z,28.20
2022-11-14T18:43:29.654Z,31.10
2022-11-14T18:46:21.661Z,30.70
2022-11-14T18:49:11.443Z,26.60
2022-11-14T18:52:05.466Z,31.00
2022-11-14T18:54:58.743Z,29.50
2022-11-14T18:57:48.167Z,36.80
2022-11-14T19:00:38.075Z,36.10
2022-11-14T19:03:29.025Z,29.70
2022-11-14T19:06:18.931Z,25.90
2022-11-14T19:09:11.614Z,27.30
2022-11-14T19:12:18.529Z,34.60
2022-11-14T19:15:11.093Z,37.70
2022-11-14T19:18:00.847Z,24.10
2022-11-14T19:21:00.306Z,30.80
2022-11-14T19:23:50.482Z,26.90
2022-11-14T19:26:40.379Z,31.00
2022-11-14T19:29:29.960Z,29.20
2022-11-14T19:32:19.149Z,27.20
2022-11-14T19:35:09.449Z,33.20
2022-11-14T19:37:58.871Z,31.50
2022-11-14T19:40:51.078Z,28.90
2022-11-14T19:43:42.651Z,27.30
2022-11-14T19:46:32.350Z,35.10
2022-11-14T19:49:21.780Z,28.50
2022-11-14T19:52:11.773Z,30.50
2022-11-14T19:55:01.391Z,29.00
2022-11-14T19:57:51.312Z,30.60
2022-11-14T20:00:40.867Z,26.20
2022-11-14T20:03:30.987Z,29.00
2022-11-14T20:06:23.308Z,29.80
2022-11-14T20:09:13.646Z,29.30
2022-11-14T20:12:04.175Z,28.50
2022-11-14T20:14:53.758Z,28.80
2022-11-14T20:17:43.316Z,31.50
2022-11-14T20:20:32.833Z,32.80
2022-11-14T20:23:23.748Z,32.20
2022-11-14T20:29:01.778Z,26.30
2022-11-14T20:31:51.698Z,27.30
2022-11-14T20:34:41.573Z,25.40
2022-11-14T20:37:31.366Z,25.10
2022-11-14T20:40:21.284Z,29.40
2022-11-14T20:43:11.006Z,26.80
2022-11-14T20:46:02.371Z,26.60
2022-11-14T20:48:52.169Z,35.80
2022-11-14T20:51:41.795Z,30.10
2022-11-14T20:54:31.510Z,34.10
2022-11-14T20:57:21.239Z,29.50
2022-11-14T21:00:13.343Z,28.30
2022-11-14T21:03:02.644Z,29.00
2022-11-14T21:05:52.317Z,29.20
2022-11-14T21:08:42.117Z,29.10
2022-11-14T21:11:31.168Z,19.00
2022-11-14T21:14:20.926Z,26.70
2022-11-14T21:17:10.305Z,25.00
2022-11-14T21:19:59.658Z,28.30
2022-11-14T21:22:48.839Z,33.60
2022-11-14T21:25:38.054Z,33.10
2022-11-14T21:28:29.077Z,33.40
2022-11-14T21:31:21.544Z,35.70
2022-11-14T21:34:14.180Z,29.60
2022-11-14T21:37:03.933Z,30.90
2022-11-14T21:39:53.388Z,27.40
2022-11-14T21:42:43.026Z,32.10
2022-11-14T21:45:32.400Z,37.70
2022-11-14T21:48:21.938Z,32.50
2022-11-14T21:51:14.374Z,33.40
2022-11-14T21:54:03.897Z,30.80
2022-11-14T21:56:53.263Z,34.40
2022-11-14T21:59:42.898Z,31.40
2022-11-14T22:02:50.201Z,28.90
2022-11-14T22:05:39.730Z,29.00
2022-11-14T22:08:29.780Z,31.20
2022-11-14T22:11:19.393Z,29.80
2022-11-14T22:14:08.719Z,29.10
2022-11-14T22:16:58.716Z,30.10
2022-11-14T22:19:47.848Z,31.20
2022-11-14T22:22:37.596Z,31.70
2022-11-14T22:25:27.114Z,31.60
2022-11-14T22:28:16.607Z,29.70
2022-11-14T22:31:07.948Z,32.00
2022-11-14T22:34:00.217Z,29.40
2022-11-14T22:36:49.782Z,33.70
2022-11-14T22:39:39.190Z,27.80
2022-11-14T22:42:28.463Z,27.30
2022-11-14T22:45:18.132Z,33.70
2022-11-14T22:48:07.931Z,32.30
2022-11-14T22:51:06.808Z,32.60
2022-11-14T22:53:59.189Z,27.50
2022-11-14T22:56:48.423Z,31.70
2022-11-14T22:59:38.017Z,32.10
2022-11-14T23:02:27.499Z,26.60
2022-11-14T23:05:16.887Z,27.10
2022-11-14T23:08:07.295Z,30.60
2022-11-14T23:10:57.064Z,30.50
2022-11-14T23:13:48.880Z,29.80
2022-11-14T23:16:38.517Z,31.80
2022-11-14T23:19:27.704Z,30.30
2022-11-14T23:22:17.046Z,32.20
2022-11-14T23:25:07.218Z,31.40
2022-11-14T23:27:56.767Z,30.50
2022-11-14T23:30:46.367Z,26.10
2022-11-14T23:33:35.962Z,27.50
2022-11-14T23:36:25.958Z,28.30
2022-11-14T23:39:15.486Z,28.80
2022-11-14T23:42:04.919Z,31.80
2022-11-14T23:44:54.434Z,33.30
2022-11-14T23:47:44.395Z,35.00
2022-11-14T23:50:33.984Z,23.50
2022-11-14T23:53:24.011Z,28.20
2022-11-14T23:56:15.643Z,30.70
2022-11-14T23:59:05.067Z,30.20
